createdAt,value
2016-02-29T00:00:38.965Z,0
2016-02-29T00:01:38.920Z,0
2016-02-29T00:02:38.892Z,0
2016-02-29T00:03:38.863Z,0
2016-02-29T00:04:38.850Z,0
2016-02-29T00:05:38.650Z,0
2016-02-29T00:06:38.762Z,0
2016-02-29T00:07:38.748Z,0
2016-02-29T00:08:38.720Z,0
2016-02-29T00:09:38.676Z,0
2016-02-29T00:10:38.664Z,0
2016-02-29T00:11:38.620Z,0
2016-02-29T00:12:38.575Z,0
2016-02-29T00:13:38.562Z,0
2016-02-29T00:14:38.534Z,0
2016-02-29T00:15:38.505Z,0
2016-02-29T00:16:38.445Z,0
2016-02-29T00:17:38.433Z,0
2016-02-29T00:18:38.389Z,0
2016-02-29T00:19:38.360Z,0
2016-02-29T00:20:38.331Z,0
2016-02-29T00:21:38.318Z,0
2016-02-29T00:22:38.274Z,0
2016-02-29T00:23:38.246Z,0
2016-02-29T00:24:38.201Z,0
2016-02-29T00:25:38.172Z,0
2016-02-29T00:26:38.143Z,0
2016-02-29T00:27:38.116Z,0
2016-02-29T00:28:38.071Z,0
2016-02-29T00:29:37.892Z,0
2016-02-29T00:30:38.020Z,0
2016-02-29T00:31:38.006Z,0
2016-02-29T00:32:37.946Z,0
2016-02-29T00:33:37.917Z,0
2016-02-29T00:34:37.889Z,0
2016-02-29T00:35:37.861Z,0
2016-02-29T00:36:37.831Z,0
2016-02-29T00:37:37.803Z,0
2016-02-29T00:38:37.759Z,0
2016-02-29T00:39:37.730Z,0
2016-02-29T00:40:37.686Z,0
2016-02-29T00:41:37.720Z,0
2016-02-29T00:42:37.630Z,0
2016-02-29T00:43:37.600Z,0
2016-02-29T00:44:37.572Z,0
2016-02-29T00:45:37.528Z,0
2016-02-29T00:46:37.515Z,0
2016-02-29T00:47:37.471Z,0
2016-02-29T00:48:37.443Z,0
2016-02-29T00:49:37.413Z,0
2016-02-29T00:50:37.385Z,0
2016-02-29T00:51:37.341Z,0
2016-02-29T00:52:37.312Z,0
2016-02-29T00:53:37.284Z,0
2016-02-29T00:54:37.255Z,0
2016-02-29T00:55:37.211Z,0
2016-02-29T00:56:37.198Z,0
2016-02-29T00:57:37.154Z,0
2016-02-29T00:58:37.141Z,0
2016-02-29T00:59:37.081Z,0
2016-02-29T01:00:37.053Z,0
2016-02-29T01:01:37.023Z,0
2016-02-29T01:02:37.011Z,0
2016-02-29T01:03:36.983Z,0
2016-02-29T01:04:36.923Z,0
2016-02-29T01:05:36.894Z,0
2016-02-29T01:06:36.866Z,0
2016-02-29T01:07:36.853Z,0
2016-02-29T01:08:36.824Z,0
2016-02-29T01:09:36.780Z,0
2016-02-29T01:10:36.735Z,0
2016-02-29T01:11:36.707Z,0
2016-02-29T01:12:36.678Z,0
2016-02-29T01:13:36.650Z,0
2016-02-29T01:14:36.606Z,0
2016-02-29T01:15:36.577Z,0
2016-02-29T01:16:36.549Z,0
2016-02-29T01:17:36.521Z,0
2016-02-29T01:18:36.492Z,0
2016-02-29T01:19:36.447Z,0
2016-02-29T01:20:36.278Z,0
2016-02-29T01:21:36.391Z,0
2016-02-29T01:22:36.346Z,0
2016-02-29T01:23:36.333Z,0
2016-02-29T01:24:36.305Z,0
2016-02-29T01:25:36.260Z,0
2016-02-29T01:26:36.232Z,0
2016-02-29T01:27:36.188Z,0
2016-02-29T01:28:36.160Z,0
2016-02-29T01:29:36.130Z,0
2016-02-29T01:30:36.117Z,0
2016-02-29T01:31:36.058Z,0
2016-02-29T01:32:36.029Z,0
2016-02-29T01:33:36.000Z,0
2016-02-29T01:34:35.988Z,0
2016-02-29T01:35:35.959Z,0
2016-02-29T01:36:35.900Z,0
2016-02-29T01:37:35.871Z,0
2016-02-29T01:38:35.858Z,0
2016-02-29T01:39:35.860Z,0
2016-02-29T01:40:35.644Z,0
2016-02-29T01:41:35.741Z,0
2016-02-29T01:42:35.728Z,0
2016-02-29T01:43:35.683Z,0
2016-02-29T01:44:35.671Z,0
2016-02-29T01:45:35.611Z,0
2016-02-29T01:46:35.599Z,0
2016-02-29T01:47:35.554Z,0
2016-02-29T01:48:35.525Z,0
2016-02-29T01:49:35.482Z,0
2016-02-29T01:50:35.452Z,0
2016-02-29T01:51:35.424Z,0
2016-02-29T01:52:35.427Z,0
2016-02-29T01:53:35.368Z,0
2016-02-29T01:54:35.339Z,0
2016-02-29T01:55:35.294Z,0
2016-02-29T01:56:35.266Z,0
2016-02-29T01:57:35.222Z,0
2016-02-29T01:58:35.193Z,0
2016-02-29T01:59:35.165Z,0
2016-02-29T02:00:35.134Z,0
2016-02-29T02:01:35.090Z,0
2016-02-29T02:02:35.047Z,0
2016-02-29T02:03:35.003Z,0
2016-02-29T02:04:34.944Z,0
2016-02-29T02:05:34.902Z,0
2016-02-29T02:06:34.852Z,0
2016-02-29T02:07:34.819Z,0
2016-02-29T02:08:34.784Z,0
2016-02-29T02:09:34.734Z,0
2016-02-29T02:10:34.717Z,0
2016-02-29T02:11:34.702Z,0
2016-02-29T02:12:34.672Z,0
2016-02-29T02:13:34.594Z,0
2016-02-29T02:14:34.595Z,0
2016-02-29T02:15:34.533Z,0
2016-02-29T02:16:34.520Z,0
2016-02-29T02:17:34.475Z,0
2016-02-29T02:18:34.430Z,0
2016-02-29T02:19:34.415Z,0
2016-02-29T02:20:34.371Z,0
2016-02-29T02:21:34.342Z,0
2016-02-29T02:22:34.299Z,0
2016-02-29T02:23:34.301Z,0
2016-02-29T02:24:34.242Z,0
2016-02-29T02:25:34.104Z,0
2016-02-29T02:26:34.216Z,0
2016-02-29T02:27:34.140Z,0
2016-02-29T02:28:34.127Z,0
2016-02-29T02:29:34.083Z,0
2016-02-29T02:30:34.054Z,0
2016-02-29T02:31:34.011Z,0
2016-02-29T02:32:33.983Z,0
2016-02-29T02:33:33.953Z,0
2016-02-29T02:34:33.909Z,0
2016-02-29T02:35:33.880Z,0
2016-02-29T02:36:33.852Z,0
2016-02-29T02:37:33.824Z,0
2016-02-29T02:38:33.794Z,0
2016-02-29T02:39:33.751Z,0
2016-02-29T02:40:33.722Z,0
2016-02-29T02:41:33.709Z,0
2016-02-29T02:42:33.649Z,0
2016-02-29T02:43:33.621Z,0
2016-02-29T02:44:33.593Z,0
2016-02-29T02:45:33.579Z,0
2016-02-29T02:46:33.520Z,0
2016-02-29T02:47:33.491Z,0
2016-02-29T02:48:33.462Z,0
2016-02-29T02:49:33.433Z,0
2016-02-29T02:50:33.406Z,0
2016-02-29T02:51:33.361Z,0
2016-02-29T02:52:33.332Z,0
2016-02-29T02:53:33.320Z,0
2016-02-29T02:54:33.259Z,0
2016-02-29T02:55:33.247Z,0
2016-02-29T02:56:33.203Z,0
2016-02-29T02:57:33.174Z,0
2016-02-29T02:58:33.146Z,0
2016-02-29T02:59:33.101Z,0
2016-02-29T03:00:33.073Z,0
2016-02-29T03:01:33.044Z,0
2016-02-29T03:02:33.000Z,0
2016-02-29T03:03:32.972Z,0
2016-02-29T03:04:32.944Z,0
2016-02-29T03:05:32.914Z,0
2016-02-29T03:06:32.870Z,0
2016-02-29T03:07:32.842Z,0
2016-02-29T03:08:32.797Z,0
2016-02-29T03:09:32.769Z,0
2016-02-29T03:10:32.741Z,0
2016-02-29T03:11:32.712Z,0
2016-02-29T03:12:32.683Z,0
2016-02-29T03:13:32.639Z,0
2016-02-29T03:14:32.610Z,0
2016-02-29T03:15:32.582Z,0
2016-02-29T03:16:32.569Z,0
2016-02-29T03:17:32.510Z,0
2016-02-29T03:18:32.496Z,0
2016-02-29T03:19:32.468Z,0
2016-02-29T03:20:32.407Z,0
2016-02-29T03:21:32.379Z,0
2016-02-29T03:22:32.350Z,0
2016-02-29T03:23:32.323Z,0
2016-02-29T03:24:32.293Z,0
2016-02-29T03:25:32.250Z,0
2016-02-29T03:26:32.220Z,0
2016-02-29T03:27:32.176Z,0
2016-02-29T03:28:32.148Z,0
2016-02-29T03:29:32.136Z,0
2016-02-29T03:30:32.092Z,0
2016-02-29T03:31:32.062Z,0
2016-02-29T03:32:32.019Z,0
2016-02-29T03:33:31.989Z,0
2016-02-29T03:34:31.962Z,0
2016-02-29T03:35:31.917Z,0
2016-02-29T03:36:31.889Z,0
2016-02-29T03:37:31.860Z,0
2016-02-29T03:38:31.831Z,0
2016-02-29T03:39:31.802Z,0
2016-02-29T03:40:31.758Z,0
2016-02-29T03:41:31.729Z,0
2016-02-29T03:42:31.685Z,0
2016-02-29T03:43:31.658Z,0
2016-02-29T03:44:31.629Z,0
2016-02-29T03:45:31.584Z,0
2016-02-29T03:46:31.571Z,0
2016-02-29T03:47:31.543Z,0
2016-02-29T03:48:31.499Z,0
2016-02-29T03:49:31.455Z,0
2016-02-29T03:50:31.426Z,0
2016-02-29T03:51:31.398Z,0
2016-02-29T03:52:31.368Z,0
2016-02-29T03:53:31.341Z,0
2016-02-29T03:54:31.296Z,0
2016-02-29T03:55:31.268Z,0
2016-02-29T03:56:31.239Z,0
2016-02-29T03:57:31.211Z,0
2016-02-29T03:58:31.167Z,0
2016-02-29T03:59:31.154Z,0
2016-02-29T04:00:31.109Z,0
2016-02-29T04:01:31.065Z,0
2016-02-29T04:02:31.037Z,0
2016-02-29T04:03:30.993Z,0
2016-02-29T04:04:30.980Z,0
2016-02-29T04:05:30.983Z,0
2016-02-29T04:06:30.907Z,0
2016-02-29T04:07:30.863Z,0
2016-02-29T04:08:30.849Z,0
2016-02-29T04:09:30.805Z,0
2016-02-29T04:10:30.777Z,0
2016-02-29T04:11:30.748Z,0
2016-02-29T04:12:30.719Z,0
2016-02-29T04:13:30.675Z,0
2016-02-29T04:14:30.647Z,0
2016-02-29T04:15:30.602Z,0
2016-02-29T04:16:30.590Z,0
2016-02-29T04:17:30.529Z,0
2016-02-29T04:18:30.518Z,0
2016-02-29T04:19:30.473Z,0
2016-02-29T04:20:30.460Z,0
2016-02-29T04:21:30.401Z,0
2016-02-29T04:22:30.371Z,0
2016-02-29T04:23:30.343Z,0
2016-02-29T04:24:30.314Z,0
2016-02-29T04:25:30.286Z,0
2016-02-29T04:26:30.257Z,0
2016-02-29T04:27:30.213Z,0
2016-02-29T04:28:30.186Z,0
2016-02-29T04:29:30.141Z,0
2016-02-29T04:30:30.113Z,0
2016-02-29T04:31:30.085Z,0
2016-02-29T04:32:30.055Z,0
2016-02-29T04:33:30.012Z,0
2016-02-29T04:34:29.982Z,0
2016-02-29T04:35:29.939Z,0
2016-02-29T04:36:29.926Z,0
2016-02-29T04:37:29.882Z,0
2016-02-29T04:38:29.853Z,0
2016-02-29T04:39:29.824Z,0
2016-02-29T04:40:29.781Z,0
2016-02-29T04:41:29.861Z,0
2016-02-29T04:42:29.723Z,0
2016-02-29T04:43:29.695Z,0
2016-02-29T04:44:29.650Z,0
2016-02-29T04:45:29.622Z,0
2016-02-29T04:46:29.578Z,0
2016-02-29T04:47:29.549Z,0
2016-02-29T04:48:29.521Z,0
2016-02-29T04:49:29.508Z,0
2016-02-29T04:50:29.464Z,0
2016-02-29T04:51:29.419Z,0
2016-02-29T04:52:29.391Z,0
2016-02-29T04:53:29.378Z,0
2016-02-29T04:54:29.318Z,0
2016-02-29T04:55:29.289Z,0
2016-02-29T04:56:29.277Z,0
2016-02-29T04:57:29.233Z,0
2016-02-29T04:58:29.204Z,0
2016-02-29T04:59:29.160Z,0
2016-02-29T05:00:29.130Z,0
2016-02-29T05:01:29.088Z,0
2016-02-29T05:02:29.058Z,0
2016-02-29T05:03:29.046Z,0
2016-02-29T05:04:28.985Z,0
2016-02-29T05:05:28.957Z,0
2016-02-29T05:06:28.932Z,0
2016-02-29T05:07:28.902Z,0
2016-02-29T05:08:28.874Z,0
2016-02-29T05:09:28.830Z,0
2016-02-29T05:10:28.801Z,0
2016-02-29T05:11:28.757Z,0
2016-02-29T05:12:28.728Z,0
2016-02-29T05:13:28.700Z,0
2016-02-29T05:14:28.657Z,0
2016-02-29T05:15:28.643Z,0
2016-02-29T05:16:28.599Z,0
2016-02-29T05:17:28.586Z,0
2016-02-29T05:18:28.542Z,0
2016-02-29T05:19:28.497Z,0
2016-02-29T05:20:28.469Z,0
2016-02-29T05:21:28.425Z,0
2016-02-29T05:22:28.411Z,0
2016-02-29T05:23:28.367Z,0
2016-02-29T05:24:28.323Z,0
2016-02-29T05:25:28.294Z,0
2016-02-29T05:26:28.266Z,0
2016-02-29T05:27:28.253Z,0
2016-02-29T05:28:28.194Z,0
2016-02-29T05:29:28.165Z,0
2016-02-29T05:30:27.980Z,0
2016-02-29T05:31:28.107Z,0
2016-02-29T05:32:28.079Z,0
2016-02-29T05:33:28.036Z,0
2016-02-29T05:34:28.007Z,0
2016-02-29T05:35:27.963Z,0
2016-02-29T05:36:27.949Z,0
2016-02-29T05:37:27.905Z,0
2016-02-29T05:38:27.861Z,0
2016-02-29T05:39:27.833Z,0
2016-02-29T05:40:27.804Z,0
2016-02-29T05:41:27.901Z,0
2016-02-29T05:42:27.746Z,0
2016-02-29T05:43:27.704Z,0
2016-02-29T05:44:27.673Z,0
2016-02-29T05:45:27.646Z,0
2016-02-29T05:46:27.618Z,4
2016-02-29T05:47:27.573Z,4
2016-02-29T05:48:27.560Z,4
2016-02-29T05:49:27.516Z,4
2016-02-29T05:50:27.472Z,4
2016-02-29T05:51:27.443Z,8
2016-02-29T05:52:27.415Z,8
2016-02-29T05:53:27.386Z,8
2016-02-29T05:54:27.342Z,8
2016-02-29T05:55:27.313Z,12
2016-02-29T05:56:27.284Z,12
2016-02-29T05:57:27.264Z,16
2016-02-29T05:58:27.217Z,24
2016-02-29T05:59:27.052Z,24
2016-02-29T06:00:27.228Z,28
2016-02-29T06:01:27.194Z,32
2016-02-29T06:02:27.072Z,40
2016-02-29T06:03:26.887Z,48
2016-02-29T06:04:27.030Z,56
2016-02-29T06:05:26.987Z,64
2016-02-29T06:06:26.942Z,80
2016-02-29T06:07:26.914Z,92
2016-02-29T06:08:26.885Z,104
2016-02-29T06:09:26.841Z,116
2016-02-29T06:10:26.813Z,136
2016-02-29T06:11:26.769Z,156
2016-02-29T06:12:26.849Z,176
2016-02-29T06:13:26.727Z,196
2016-02-29T06:14:26.682Z,216
2016-02-29T06:15:26.655Z,236
2016-02-29T06:16:26.610Z,260
2016-02-29T06:17:26.582Z,280
2016-02-29T06:18:26.546Z,312
2016-02-29T06:19:26.516Z,348
2016-02-29T06:20:26.472Z,376
2016-02-29T06:21:26.443Z,388
2016-02-29T06:22:26.415Z,416
2016-02-29T06:23:26.387Z,456
2016-02-29T06:24:26.343Z,488
2016-02-29T06:25:26.314Z,528
2016-02-29T06:26:26.285Z,556
2016-02-29T06:27:26.256Z,588
2016-02-29T06:28:26.212Z,632
2016-02-29T06:29:26.168Z,664
2016-02-29T06:30:26.156Z,716
2016-02-29T06:31:26.111Z,764
2016-02-29T06:32:26.083Z,812
2016-02-29T06:33:26.053Z,868
2016-02-29T06:34:26.025Z,924
2016-02-29T06:35:25.997Z,972
2016-02-29T06:36:25.969Z,1012
2016-02-29T06:37:25.925Z,1056
2016-02-29T06:38:25.895Z,1116
2016-02-29T06:39:25.852Z,1172
2016-02-29T06:40:25.822Z,1252
2016-02-29T06:41:25.794Z,1316
2016-02-29T06:42:25.766Z,1352
2016-02-29T06:43:25.722Z,1408
2016-02-29T06:44:25.693Z,1472
2016-02-29T06:45:25.664Z,1524
2016-02-29T06:46:25.635Z,1584
2016-02-29T06:47:25.592Z,1652
2016-02-29T06:48:25.563Z,1728
2016-02-29T06:49:25.535Z,1840
2016-02-29T06:50:25.490Z,1976
2016-02-29T06:51:25.462Z,2152
2016-02-29T06:52:25.433Z,2336
2016-02-29T06:53:25.404Z,2484
2016-02-29T06:54:25.360Z,2604
2016-02-29T06:55:25.332Z,2724
2016-02-29T06:56:25.304Z,2820
2016-02-29T06:57:25.275Z,2908
2016-02-29T06:58:25.215Z,3008
2016-02-29T06:59:25.201Z,3112
2016-02-29T07:00:25.159Z,3220
2016-02-29T07:01:25.129Z,3316
2016-02-29T07:02:25.101Z,3420
2016-02-29T07:03:25.072Z,3496
2016-02-29T07:04:25.028Z,3556
2016-02-29T07:05:25.000Z,3644
2016-02-29T07:06:24.970Z,3756
2016-02-29T07:07:24.927Z,3824
2016-02-29T07:08:24.898Z,3888
2016-02-29T07:09:24.869Z,3972
2016-02-29T07:10:24.841Z,4052
2016-02-29T07:11:24.797Z,4128
2016-02-29T07:12:24.815Z,4144
2016-02-29T07:13:24.739Z,4160
2016-02-29T07:14:24.711Z,4216
2016-02-29T07:15:24.699Z,4292
2016-02-29T07:16:24.638Z,4372
2016-02-29T07:17:24.610Z,4412
2016-02-29T07:18:24.582Z,4492
2016-02-29T07:19:24.553Z,4552
2016-02-29T07:20:24.508Z,4624
2016-02-29T07:21:24.480Z,4676
2016-02-29T07:22:24.451Z,4740
2016-02-29T07:23:24.423Z,4772
2016-02-29T07:24:24.379Z,4796
2016-02-29T07:25:24.365Z,4840
2016-02-29T07:26:24.322Z,4876
2016-02-29T07:27:24.340Z,4924
2016-02-29T07:28:24.249Z,4976
2016-02-29T07:29:24.220Z,5048
2016-02-29T07:30:24.192Z,5100
2016-02-29T07:31:24.148Z,5160
2016-02-29T07:32:24.134Z,5224
2016-02-29T07:33:24.106Z,5276
2016-02-29T07:34:24.062Z,5352
2016-02-29T07:35:24.033Z,5420
2016-02-29T07:36:24.005Z,5480
2016-02-29T07:37:23.976Z,5524
2016-02-29T07:38:23.947Z,5592
2016-02-29T07:39:23.904Z,5640
2016-02-29T07:40:23.875Z,5664
2016-02-29T07:41:23.847Z,5712
2016-02-29T07:42:23.817Z,5756
2016-02-29T07:43:23.774Z,5816
2016-02-29T07:44:23.777Z,5888
2016-02-29T07:45:24.061Z,5924
2016-02-29T07:46:23.688Z,5952
2016-02-29T07:47:23.644Z,6000
2016-02-29T07:48:23.647Z,6060
2016-02-29T07:49:23.586Z,6112
2016-02-29T07:50:23.558Z,6156
2016-02-29T07:51:23.529Z,6192
2016-02-29T07:52:23.501Z,6216
2016-02-29T07:53:23.472Z,6264
2016-02-29T07:54:23.429Z,6292
2016-02-29T07:55:23.384Z,6348
2016-02-29T07:56:23.355Z,6388
2016-02-29T07:57:23.343Z,6440
2016-02-29T07:58:23.315Z,6472
2016-02-29T07:59:23.270Z,6496
2016-02-29T08:00:23.070Z,6536
2016-02-29T08:01:23.322Z,6584
2016-02-29T08:02:23.184Z,6612
2016-02-29T08:03:23.139Z,6684
2016-02-29T08:04:23.095Z,6684
2016-02-29T08:05:23.084Z,6724
2016-02-29T08:06:23.054Z,6772
2016-02-29T08:07:23.009Z,6808
2016-02-29T08:08:22.997Z,6808
2016-02-29T08:09:22.953Z,6828
2016-02-29T08:10:22.972Z,6904
2016-02-29T08:11:22.896Z,6916
2016-02-29T08:12:22.867Z,6956
2016-02-29T08:13:22.839Z,6960
2016-02-29T08:14:22.794Z,7024
2016-02-29T08:15:22.781Z,7092
2016-02-29T08:16:22.737Z,7100
2016-02-29T08:17:22.708Z,7136
2016-02-29T08:18:22.664Z,7156
2016-02-29T08:19:22.636Z,7176
2016-02-29T08:20:22.607Z,7220
2016-02-29T08:21:22.594Z,7240
2016-02-29T08:22:22.547Z,7244
2016-02-29T08:23:22.518Z,7280
2016-02-29T08:24:22.491Z,7340
2016-02-29T08:25:22.463Z,7360
2016-02-29T08:26:22.433Z,7352
2016-02-29T08:27:22.405Z,7348
2016-02-29T08:28:22.361Z,7380
2016-02-29T08:29:22.316Z,7444
2016-02-29T08:30:22.303Z,7460
2016-02-29T08:31:22.259Z,7508
2016-02-29T08:32:22.263Z,7556
2016-02-29T08:33:22.202Z,7568
2016-02-29T08:34:22.596Z,7552
2016-02-29T08:35:22.192Z,7624
2016-02-29T08:36:22.148Z,7628
2016-02-29T08:37:22.087Z,7636
2016-02-29T08:38:22.075Z,7624
2016-02-29T08:39:22.031Z,7660
2016-02-29T08:40:21.987Z,7700
2016-02-29T08:41:21.990Z,7744
2016-02-29T08:42:21.961Z,7744
2016-02-29T08:43:21.917Z,7760
2016-02-29T08:44:21.872Z,7784
2016-02-29T08:45:21.860Z,7736
2016-02-29T08:46:21.816Z,7744
2016-02-29T08:47:21.803Z,7828
2016-02-29T08:48:21.758Z,7796
2016-02-29T08:49:21.995Z,7788
2016-02-29T08:50:21.872Z,7836
2016-02-29T08:51:21.688Z,7848
2016-02-29T08:52:21.612Z,7900
2016-02-29T08:53:21.600Z,7888
2016-02-29T08:54:21.572Z,7880
2016-02-29T08:55:21.543Z,7968
2016-02-29T08:56:21.499Z,8032
2016-02-29T08:57:21.485Z,8096
2016-02-29T08:58:21.441Z,8108
2016-02-29T08:59:21.428Z,8084
2016-02-29T09:00:21.415Z,8096
2016-02-29T09:01:21.403Z,8108
2016-02-29T09:02:21.343Z,8148
2016-02-29T09:03:21.315Z,8140
2016-02-29T09:04:21.254Z,8116
2016-02-29T09:05:21.288Z,8172
2016-02-29T09:06:21.353Z,8224
2016-02-29T09:07:21.215Z,8280
2016-02-29T09:08:21.139Z,8268
2016-02-29T09:09:21.142Z,8300
2016-02-29T09:10:21.082Z,8296
2016-02-29T09:11:21.053Z,8324
2016-02-29T09:12:21.024Z,8344
2016-02-29T09:13:21.012Z,8404
2016-02-29T09:14:20.983Z,8292
2016-02-29T09:15:20.939Z,8368
2016-02-29T09:16:21.411Z,8388
2016-02-29T09:17:20.726Z,8416
2016-02-29T09:18:20.900Z,8432
2016-02-29T09:19:20.825Z,8528
2016-02-29T09:20:20.797Z,8440
2016-02-29T09:21:21.330Z,8488
2016-02-29T09:22:20.740Z,8520
2016-02-29T09:23:20.710Z,8584
2016-02-29T09:24:21.260Z,8572
2016-02-29T09:25:21.153Z,8616
2016-02-29T09:26:20.625Z,8628
2016-02-29T09:27:20.582Z,8600
2016-02-29T09:28:20.584Z,8628
2016-02-29T09:29:20.743Z,8644
2016-02-29T09:30:20.948Z,8680
2016-02-29T09:31:20.497Z,8688
2016-02-29T09:32:20.688Z,8652
2016-02-29T09:33:20.410Z,8700
2016-02-29T09:34:20.365Z,8720
2016-02-29T09:35:20.353Z,8692
2016-02-29T09:36:20.324Z,8700
2016-02-29T09:37:20.295Z,8752
2016-02-29T09:38:20.267Z,8776
2016-02-29T09:39:20.239Z,8796
2016-02-29T09:40:20.210Z,8784
2016-02-29T09:41:20.166Z,8800
2016-02-29T09:42:20.230Z,8784
2016-02-29T09:43:20.108Z,8816
2016-02-29T09:44:20.079Z,8816
2016-02-29T09:45:20.051Z,8860
2016-02-29T09:46:20.007Z,8868
2016-02-29T09:47:20.010Z,8912
2016-02-29T10:16:14.996Z,9020
2016-02-29T10:16:42.152Z,9000
2016-02-29T10:17:42.154Z,9032
2016-02-29T10:18:42.111Z,9080
2016-02-29T10:19:42.098Z,9184
2016-02-29T10:20:42.054Z,9116
2016-02-29T10:21:42.040Z,9176
2016-02-29T10:22:41.981Z,9256
2016-02-29T10:23:41.967Z,9120
2016-02-29T10:24:41.986Z,9124
2016-02-29T10:25:41.973Z,9176
2016-02-29T10:26:41.882Z,9280
2016-02-29T10:27:41.853Z,9260
2016-02-29T10:28:41.825Z,9268
2016-02-29T10:29:41.797Z,9296
2016-02-29T10:30:41.768Z,9344
2016-02-29T10:31:41.739Z,9224
2016-02-29T10:32:41.727Z,9216
2016-02-29T10:33:41.713Z,9496
2016-02-29T10:34:41.653Z,9672
2016-02-29T10:35:41.625Z,9140
2016-02-29T10:36:41.675Z,9300
2016-02-29T10:37:41.583Z,9368
2016-02-29T10:38:41.539Z,9448
2016-02-29T10:39:41.527Z,9484
2016-02-29T10:40:41.498Z,9652
2016-02-29T10:41:41.454Z,9368
2016-02-29T10:42:41.425Z,9392
2016-02-29T10:43:41.396Z,9396
2016-02-29T10:44:41.368Z,9440
2016-02-29T10:45:41.340Z,9496
2016-02-29T10:46:41.327Z,9480
2016-02-29T10:47:41.751Z,9332
2016-02-29T10:48:41.254Z,9436
2016-02-29T10:49:41.241Z,9616
2016-02-29T10:50:41.196Z,9368
2016-02-29T10:51:41.199Z,9372
2016-02-29T10:52:41.156Z,9568
2016-02-29T10:53:41.111Z,9428
2016-02-29T10:54:41.098Z,9296
2016-02-29T10:55:40.914Z,9404
2016-02-29T10:56:41.041Z,9492
2016-02-29T10:57:41.028Z,9624
2016-02-29T10:58:40.968Z,9800
2016-02-29T10:59:40.970Z,10284
2016-02-29T11:00:40.770Z,9848
2016-02-29T11:01:41.055Z,9616
2016-02-29T11:02:40.886Z,9676
2016-02-29T11:03:40.841Z,9924
2016-02-29T11:04:40.813Z,10388
2016-02-29T11:05:40.789Z,10268
2016-02-29T11:06:40.773Z,9888
2016-02-29T11:07:40.733Z,9780
2016-02-29T11:08:40.694Z,10008
2016-02-29T11:09:40.670Z,10104
2016-02-29T11:10:40.615Z,10036
2016-02-29T11:11:40.576Z,10216
2016-02-29T11:12:40.544Z,10500
2016-02-29T11:13:40.512Z,9952
2016-02-29T11:14:40.494Z,9816
2016-02-29T11:15:40.463Z,10024
2016-02-29T11:16:40.415Z,10064
2016-02-29T11:17:40.400Z,10616
2016-02-29T11:18:40.355Z,11096
2016-02-29T11:19:40.325Z,10732
2016-02-29T11:20:40.311Z,10976
2016-02-29T11:21:40.266Z,10892
2016-02-29T11:22:40.252Z,10896
2016-02-29T11:23:40.207Z,11600
2016-02-29T11:24:40.209Z,11860
2016-02-29T11:25:40.165Z,11208
2016-02-29T11:26:40.136Z,10892
2016-02-29T11:27:40.107Z,11080
2016-02-29T11:28:40.078Z,12280
2016-02-29T11:29:40.065Z,13000
2016-02-29T11:30:40.036Z,11644
2016-02-29T11:31:40.008Z,11036
2016-02-29T11:32:39.963Z,10832
2016-02-29T11:33:39.934Z,11296
2016-02-29T11:34:39.937Z,11572
2016-02-29T11:35:39.893Z,11528
2016-02-29T11:36:39.864Z,11596
2016-02-29T11:37:39.836Z,12896
2016-02-29T11:38:39.807Z,15016
2016-02-29T11:39:39.810Z,14604
2016-02-29T11:40:39.750Z,13920
2016-02-29T11:41:39.752Z,13132
2016-02-29T11:42:39.708Z,14668
2016-02-29T11:43:39.680Z,13140
2016-02-29T11:44:39.651Z,11708
2016-02-29T11:45:39.638Z,11196
2016-02-29T11:46:39.593Z,11712
2016-02-29T11:47:39.847Z,12464
2016-02-29T11:48:39.553Z,13572
2016-02-29T11:49:39.524Z,15772
2016-02-29T11:50:39.480Z,17248
2016-02-29T11:51:39.498Z,16504
2016-02-29T11:52:39.454Z,16416
2016-02-29T11:53:39.410Z,15732
2016-02-29T11:54:39.382Z,14664
2016-02-29T11:55:39.368Z,15656
2016-02-29T11:56:39.371Z,17880
2016-02-29T11:57:39.327Z,17224
2016-02-29T11:58:39.345Z,15816
2016-02-29T11:59:39.270Z,15044
2016-02-29T12:00:39.226Z,14104
2016-02-29T12:01:39.197Z,11992
2016-02-29T12:02:39.184Z,10900
2016-02-29T12:03:39.155Z,11248
2016-02-29T12:04:39.189Z,12324
2016-02-29T12:05:39.255Z,12644
2016-02-29T12:06:39.070Z,12408
2016-02-29T12:07:39.073Z,13700
2016-02-29T12:08:39.013Z,16472
2016-02-29T12:09:39.031Z,19072
2016-02-29T12:10:38.971Z,17116
2016-02-29T12:11:38.958Z,16652
2016-02-29T12:12:38.914Z,18400
2016-02-29T12:13:38.902Z,18752
2016-02-29T12:14:38.873Z,19648
2016-02-29T12:15:38.844Z,17760
2016-02-29T12:16:38.816Z,16608
2016-02-29T12:17:38.803Z,15484
2016-02-29T12:18:38.774Z,15128
2016-02-29T12:19:38.762Z,13812
2016-02-29T12:20:38.733Z,12096
2016-02-29T12:21:38.704Z,10424
2016-02-29T12:22:38.676Z,10668
2016-02-29T12:23:38.648Z,10612
2016-02-29T12:24:38.618Z,10620
2016-02-29T12:25:38.637Z,10228
2016-02-29T12:26:38.592Z,10748
2016-02-29T12:27:38.548Z,11720
2016-02-29T12:28:38.520Z,13460
2016-02-29T12:29:38.506Z,14500
2016-02-29T12:30:38.462Z,15500
2016-02-29T12:31:38.450Z,17172
2016-02-29T12:32:38.405Z,20032
2016-02-29T12:33:38.378Z,21280
2016-02-29T12:34:38.364Z,19680
2016-02-29T12:35:38.383Z,17340
2016-02-29T12:36:38.354Z,15232
2016-02-29T12:37:38.278Z,14176
2016-02-29T12:38:38.266Z,13796
2016-02-29T12:39:38.252Z,13324
2016-02-29T12:40:38.209Z,13580
2016-02-29T12:41:38.180Z,13216
2016-02-29T12:42:38.167Z,12916
2016-02-29T12:43:38.138Z,12640
2016-02-29T12:44:38.110Z,12204
2016-02-29T12:45:38.096Z,10540
2016-02-29T12:46:38.069Z,10896
2016-02-29T12:47:38.040Z,12140
2016-02-29T12:48:38.011Z,13728
2016-02-29T12:49:37.998Z,14540
2016-02-29T12:50:37.970Z,13960
2016-02-29T12:51:37.926Z,13744
2016-02-29T12:52:37.913Z,12996
2016-02-29T12:53:37.899Z,13180
2016-02-29T12:54:37.856Z,13632
2016-02-29T12:55:37.843Z,13468
2016-02-29T12:56:37.814Z,12520
2016-02-29T12:57:37.785Z,12420
2016-02-29T12:58:37.772Z,12300
2016-02-29T12:59:37.728Z,12068
2016-02-29T13:00:37.575Z,11940
2016-02-29T13:01:37.703Z,11948
2016-02-29T13:02:37.705Z,12180
2016-02-29T13:03:37.645Z,12460
2016-02-29T13:04:37.617Z,12728
2016-02-29T13:05:37.595Z,13312
2016-02-29T13:06:37.581Z,14288
2016-02-29T13:07:37.537Z,14936
2016-02-29T13:08:37.633Z,14800
2016-02-29T13:09:37.480Z,14860
2016-02-29T13:10:37.451Z,14560
2016-02-29T13:11:37.423Z,14568
2016-02-29T13:12:37.395Z,14508
2016-02-29T13:13:37.381Z,14288
2016-02-29T13:14:37.353Z,13604
2016-02-29T13:15:37.324Z,13088
2016-02-29T13:16:37.811Z,13200
2016-02-29T13:17:37.736Z,13416
2016-02-29T13:18:37.255Z,12928
2016-02-29T13:19:37.225Z,11888
2016-02-29T13:20:37.197Z,10964
2016-02-29T13:21:37.215Z,10592
2016-02-29T13:22:37.155Z,11436
2016-02-29T13:23:37.127Z,12424
2016-02-29T13:24:37.099Z,13088
2016-02-29T13:25:37.070Z,11968
2016-02-29T13:26:37.041Z,11772
2016-02-29T13:27:37.200Z,12208
2016-02-29T13:28:37.171Z,12544
2016-02-29T13:29:36.987Z,12512
2016-02-29T13:30:36.958Z,12324
2016-02-29T13:31:36.946Z,11412
2016-02-29T13:32:36.901Z,11444
2016-02-29T13:33:36.888Z,10668
2016-02-29T13:34:36.844Z,10076
2016-02-29T13:35:36.831Z,10132
2016-02-29T13:36:36.787Z,10216
2016-02-29T13:37:36.774Z,9980
2016-02-29T13:38:36.762Z,9640
2016-02-29T13:39:36.717Z,10264
2016-02-29T13:40:36.704Z,10948
2016-02-29T13:41:36.659Z,11208
2016-02-29T13:42:36.648Z,10960
2016-02-29T13:43:36.650Z,10888
2016-02-29T13:44:36.590Z,10904
2016-02-29T13:45:36.561Z,10784
2016-02-29T13:46:36.548Z,10628
2016-02-29T13:47:36.503Z,10400
2016-02-29T13:48:36.491Z,9660
2016-02-29T13:49:36.462Z,9956
2016-02-29T13:50:36.450Z,10356
2016-02-29T13:51:36.436Z,10340
2016-02-29T13:52:36.830Z,10488
2016-02-29T13:53:36.363Z,10652
2016-02-29T13:54:36.335Z,10856
2016-02-29T13:55:36.323Z,11104
2016-02-29T13:56:36.278Z,11248
2016-02-29T13:57:36.313Z,11336
2016-02-29T13:58:36.221Z,11060
2016-02-29T13:59:36.208Z,10568
2016-02-29T14:00:36.195Z,10440
2016-02-29T14:01:36.152Z,10536
2016-02-29T14:02:36.138Z,10536
2016-02-29T14:03:36.157Z,10436
2016-02-29T14:04:36.065Z,10056
2016-02-29T14:05:36.052Z,9900
2016-02-29T14:06:36.008Z,9984
2016-02-29T14:07:35.995Z,9900
2016-02-29T14:08:35.967Z,9764
2016-02-29T14:09:35.938Z,9688
2016-02-29T14:10:35.940Z,9824
2016-02-29T14:11:35.881Z,9984
2016-02-29T14:12:35.867Z,9896
2016-02-29T14:13:35.855Z,9740
2016-02-29T14:14:35.811Z,9632
2016-02-29T14:15:35.783Z,9560
2016-02-29T14:16:35.754Z,9496